Time;durP1;ratioP1;P1;durP2;ratioP2;P2;SDS_P1;SDS_P2;PMS_P1;PMS_P2;Temp;Humidity;BMP_temperature;BMP_pressure;BME280_temperature;BME280_humidity;BME280_pressure;Samples;Min_cycle;Max_cycle;Signal;HPM_P1;HPM_P2
2023/08/12 00:00:59;;;;;;;7.10;5.07;;;;;;;-141.97;55.31;47459.50;5021215;28;20166;-83
2023/08/12 00:03:24;;;;;;;6.80;5.10;;;;;;;-141.97;55.18;47396.06;5014033;28;20264;-83
2023/08/12 00:05:50;;;;;;;5.40;4.90;;;;;;;-141.97;55.22;47657.47;5032272;28;20308;-82
2023/08/12 00:08:16;;;;;;;7.03;4.80;;;;;;;-141.97;54.80;47522.91;5031746;28;20587;-82
2023/08/12 00:10:41;;;;;;;5.30;4.43;;;;;;;-141.97;55.00;47411.44;5031725;28;20198;-83
2023/08/12 00:13:06;;;;;;;5.70;4.80;;;;;;;-141.97;55.21;47373.00;5032191;28;20162;-82
2023/08/12 00:15:32;;;;;;;5.00;4.47;;;;;;;-141.97;55.46;47340.34;5031521;28;20190;-82
2023/08/12 00:17:58;;;;;;;6.17;4.80;;;;;;;-141.97;55.41;47422.97;5031346;28;20208;-83
2023/08/12 00:20:24;;;;;;;5.60;4.50;;;;;;;-141.97;55.14;47626.72;5014478;28;20206;-82
2023/08/12 00:22:49;;;;;;;8.80;4.63;;;;;;;-141.97;55.03;47522.91;5031829;28;20237;-84
2023/08/12 00:25:15;;;;;;;5.00;4.50;;;;;;;-141.97;54.92;47638.25;5013602;28;20177;-84
2023/08/12 00:27:40;;;;;;;5.07;4.40;;;;;;;-141.97;54.63;47488.31;5032047;28;20356;-82
2023/08/12 00:30:06;;;;;;;8.00;4.50;;;;;;;-141.97;54.51;47699.75;5031978;28;20170;-83
2023/08/12 00:32:31;;;;;;;6.20;4.17;;;;;;;-141.97;54.36;47546.00;5014326;28;20193;-83
2023/08/12 00:34:57;;;;;;;6.00;4.57;;;;;;;-141.97;54.08;47334.56;5032122;28;20686;-83
2023/08/12 00:37:22;;;;;;;6.23;4.90;;;;;;;-141.97;54.02;47332.66;5032229;28;20174;-82
2023/08/12 00:39:48;;;;;;;6.97;4.87;;;;;;;-141.97;53.94;47430.66;5031759;28;20273;-83
2023/08/12 00:42:13;;;;;;;7.00;4.83;;;;;;;-141.97;53.82;47561.38;5030750;28;20261;-83
2023/08/12 00:44:38;;;;;;;5.27;4.73;;;;;;;-141.97;53.72;47455.66;5014845;28;20253;-83
2023/08/12 00:47:04;;;;;;;5.10;4.60;;;;;;;-141.97;54.19;47301.91;5052961;28;20174;-84
2023/08/12 00:49:31;;;;;;;5.87;4.80;;;;;;;-141.97;54.27;47453.72;5046390;28;20279;-83
2023/08/12 00:51:57;;;;;;;6.63;4.80;;;;;;;-141.97;54.42;47467.19;5013849;28;20192;-83
2023/08/12 00:54:23;;;;;;;6.97;5.03;;;;;;;-141.97;54.43;47499.84;5032006;28;20249;-82
2023/08/12 00:56:49;;;;;;;5.67;4.90;;;;;;;-141.97;54.62;47357.63;5030753;28;20170;-82
2023/08/12 00:59:17;;;;;;;5.40;4.90;;;;;;;-141.97;54.86;47494.09;5032143;28;20269;-84
2023/08/12 01:01:43;;;;;;;6.57;4.80;;;;;;;-141.97;55.75;47382.63;5030781;28;20197;-83
2023/08/12 01:04:08;;;;;;;6.17;4.90;;;;;;;-141.97;55.86;47396.06;5032297;28;20162;-84
2023/08/12 01:06:34;;;;;;;5.40;4.83;;;;;;;-141.97;56.17;47499.84;5031861;28;20236;-83
2023/08/12 01:09:01;;;;;;;5.90;4.83;;;;;;;-141.97;56.29;47511.38;5031447;28;20162;-84
2023/08/12 01:11:39;;;;;;;7.00;5.20;;;;;;;-141.97;55.91;47469.09;5031505;28;20175;-84
2023/08/12 01:14:20;;;;;;;5.87;4.90;;;;;;;-141.97;56.30;47513.31;5012646;28;20568;-84
2023/08/12 01:16:49;;;;;;;5.13;4.60;;;;;;;-141.97;56.66;47519.06;5030671;28;20245;-84
2023/08/12 01:19:29;;;;;;;6.17;4.73;;;;;;;-141.97;57.08;47526.75;5030775;28;20185;-84
2023/08/12 01:21:59;;;;;;;5.10;4.60;;;;;;;-141.97;57.11;47394.16;5013882;28;20626;-84
2023/08/12 01:24:25;;;;;;;5.90;5.13;;;;;;;-141.97;57.11;47480.63;5014977;28;20221;-83
2023/08/12 01:26:50;;;;;;;5.17;4.67;;;;;;;-141.97;56.94;47432.59;5051427;28;20222;-84
2023/08/12 01:29:17;;;;;;;6.07;5.47;;;;;;;-141.97;57.74;47380.69;5044250;28;20261;-84
2023/08/12 01:31:51;;;;;;;7.27;5.63;;;;;;;-141.97;58.31;47559.44;5014033;28;20228;-84
2023/08/12 01:34:56;;;;;;;7.83;5.80;;;;;;;-141.97;58.30;47449.88;5031180;28;20170;-83
2023/08/12 01:37:26;;;;;;;7.63;5.83;;;;;;;-141.97;58.55;47453.72;5030540;28;20204;-84
2023/08/12 01:39:53;;;;;;;8.03;5.57;;;;;;;-141.97;58.27;47411.44;5012843;28;20727;-84
2023/08/12 01:42:19;;;;;;;7.83;5.80;;;;;;;-141.97;58.24;47444.13;5028464;28;20170;-82
2023/08/12 01:44:45;;;;;;;6.50;5.57;;;;;;;-141.97;58.64;47398.00;5032453;28;20214;-83
2023/08/12 01:47:11;;;;;;;6.30;5.60;;;;;;;-141.97;58.53;47376.84;5031944;28;20201;-83
2023/08/12 01:49:37;;;;;;;7.00;5.53;;;;;;;-141.97;58.53;47467.19;5032094;28;20163;-83
2023/08/12 01:52:02;;;;;;;7.33;5.67;;;;;;;-141.97;58.06;47605.56;5020179;28;20183;-84
2023/08/12 01:54:33;;;;;;;7.27;5.57;;;;;;;-141.97;58.22;47380.69;4993515;28;20174;-83
2023/08/12 01:57:00;;;;;;;7.03;5.50;;;;;;;-141.97;58.71;47653.63;4993418;28;20264;-84
2023/08/12 01:59:26;;;;;;;7.93;5.57;;;;;;;-141.97;58.89;47522.91;4993035;28;20195;-84
2023/08/12 02:01:51;;;;;;;6.70;5.60;;;;;;;-141.97;59.11;47730.50;4993728;28;20201;-84
2023/08/12 02:04:17;;;;;;;8.37;5.70;;;;;;;-141.97;59.28;47413.38;5010721;28;20502;-83
2023/08/12 02:06:42;;;;;;;6.60;5.87;;;;;;;-141.97;59.59;47292.28;4993246;28;20258;-84
2023/08/12 02:09:08;;;;;;;6.30;5.70;;;;;;;-141.97;60.21;47472.94;4992996;28;20306;-84
2023/08/12 02:11:33;;;;;;;6.87;5.50;;;;;;;-141.97;60.64;47582.50;4992893;28;20241;-84
2023/08/12 02:13:58;;;;;;;7.77;5.63;;;;;;;-141.97;60.32;47711.28;5010396;28;20542;-84
2023/08/12 02:16:24;;;;;;;12.30;6.50;;;;;;;-141.97;60.53;47651.69;4993213;28;20178;-84
2023/08/12 02:18:49;;;;;;;6.70;6.00;;;;;;;-141.97;60.43;47449.88;5012019;28;20195;-83
2023/08/12 02:21:14;;;;;;;7.23;6.20;;;;;;;-141.97;61.39;47415.28;5022623;28;20240;-80
2023/08/12 02:23:40;;;;;;;8.20;5.83;;;;;;;-141.97;62.00;47330.72;5023793;28;20253;-83
2023/08/12 02:26:05;;;;;;;10.37;6.23;;;;;;;-141.97;62.15;47419.13;5011603;28;20229;-84
2023/08/12 02:28:31;;;;;;;7.67;6.00;;;;;;;-141.97;62.44;47542.16;4996798;28;20671;-83
2023/08/12 02:30:56;;;;;;;7.13;5.87;;;;;;;-141.97;62.87;47617.09;4996348;28;20266;-84
2023/08/12 02:33:21;;;;;;;7.47;6.00;;;;;;;-141.97;63.19;47676.69;5014405;28;20246;-84
2023/08/12 02:35:47;;;;;;;7.60;5.80;;;;;;;-141.97;63.47;47638.25;4996316;28;20178;-83
2023/08/12 02:38:12;;;;;;;7.23;6.13;;;;;;;-141.97;63.47;47440.28;4996144;28;20242;-84
2023/08/12 02:40:37;;;;;;;8.30;6.30;;;;;;;-141.97;62.85;47694.00;4996269;28;20170;-83
2023/08/12 02:43:03;;;;;;;8.03;5.83;;;;;;;-141.97;62.99;47348.03;4996535;28;20167;-84
2023/08/12 02:45:28;;;;;;;8.83;6.03;;;;;;;-141.97;63.65;47682.47;5013923;28;20550;-84
2023/08/12 02:47:54;;;;;;;9.67;6.40;;;;;;;-141.97;64.17;47380.69;5013552;28;20246;-83
2023/08/12 02:50:20;;;;;;;8.37;6.23;;;;;;;-141.97;64.31;47674.78;4995775;28;20655;-83
2023/08/12 02:52:45;;;;;;;9.27;6.00;;;;;;;-141.97;64.16;47694.00;4996265;28;20335;-83
2023/08/12 02:55:11;;;;;;;6.50;5.83;;;;;;;-141.97;63.75;47334.56;5013596;28;20550;-84
2023/08/12 02:57:36;;;;;;;7.63;5.60;;;;;;;-141.97;63.65;47376.84;4995476;28;20709;-84
2023/08/12 03:00:03;;;;;;;7.10;5.47;;;;;;;-141.97;63.16;47461.41;5013582;28;20289;-83
2023/08/12 03:02:29;;;;;;;6.80;5.80;;;;;;;-141.97;62.98;47644.00;4995797;28;20231;-84
2023/08/12 03:04:54;;;;;;;6.40;5.57;;;;;;;-141.97;62.31;47534.44;4996093;28;20304;-83
2023/08/12 03:07:20;;;;;;;7.10;5.43;;;;;;;-141.97;62.17;47480.63;5011353;28;20670;-84
2023/08/12 03:09:45;;;;;;;6.43;5.53;;;;;;;-141.97;61.93;47534.44;5015091;28;20271;-83
2023/08/12 03:12:10;;;;;;;7.30;5.50;;;;;;;-141.97;61.67;47503.69;5032772;28;20177;-83
2023/08/12 03:14:36;;;;;;;7.77;5.73;;;;;;;-141.97;61.50;47597.88;5032724;28;20319;-84
2023/08/12 03:17:01;;;;;;;7.10;5.57;;;;;;;-141.97;61.94;47355.72;5032993;28;20170;-83
2023/08/12 03:19:27;;;;;;;9.67;5.90;;;;;;;-141.97;61.73;47647.84;5014922;28;20629;-82
2023/08/12 03:21:52;;;;;;;6.90;5.60;;;;;;;-141.97;61.36;47567.13;5032809;28;20181;-82
2023/08/12 03:24:17;;;;;;;9.50;5.87;;;;;;;-141.97;61.01;47532.53;5014904;28;20170;-83
2023/08/12 03:26:43;;;;;;;6.73;5.70;;;;;;;-141.97;60.73;47434.50;5032604;28;20218;-83
2023/08/12 03:29:08;;;;;;;7.63;5.60;;;;;;;-141.97;60.90;47663.22;5014859;28;20174;-82
2023/08/12 03:31:34;;;;;;;6.97;5.50;;;;;;;-141.97;61.06;47405.69;5032516;28;20173;-82
2023/08/12 03:33:59;;;;;;;6.90;5.50;;;;;;;-141.97;61.08;47422.97;5014633;28;20191;-83
2023/08/12 03:36:24;;;;;;;8.50;6.37;;;;;;;-141.97;61.03;47515.22;5032120;28;20248;-82
2023/08/12 03:38:50;;;;;;;9.00;5.47;;;;;;;-141.97;61.26;47519.06;5032330;28;20201;-84
2023/08/12 03:41:15;;;;;;;7.23;5.90;;;;;;;-141.97;61.08;47513.31;5032416;28;20249;-84
2023/08/12 03:43:41;;;;;;;7.53;6.00;;;;;;;-141.97;61.16;47486.41;5032333;28;20174;-84
2023/08/12 03:46:06;;;;;;;6.97;5.70;;;;;;;-141.97;60.47;47620.94;5032255;28;20257;-83
2023/08/12 03:48:31;;;;;;;10.70;5.87;;;;;;;-141.97;61.13;47530.59;5032437;28;20219;-84
2023/08/12 03:50:57;;;;;;;14.27;8.63;;;;;;;-141.97;61.51;47544.06;5032135;28;20158;-84
2023/08/12 03:53:22;;;;;;;13.67;8.50;;;;;;;-141.97;61.13;47334.56;5032172;28;20197;-84
2023/08/12 03:55:48;;;;;;;8.73;6.97;;;;;;;-141.97;61.39;47703.59;5032229;28;20170;-84
2023/08/12 03:58:13;;;;;;;13.17;8.90;;;;;;;-141.97;61.19;47403.75;5031887;28;20209;-84
2023/08/12 04:00:45;;;;;;;12.90;8.03;;;;;;;-141.97;60.67;47436.44;5032231;28;20178;-84
2023/08/12 04:03:11;;;;;;;12.53;7.07;;;;;;;-141.97;60.13;47492.16;5032109;28;20192;-84
2023/08/12 04:05:36;;;;;;;7.93;6.70;;;;;;;-141.97;59.43;47651.69;5032141;28;20249;-84
2023/08/12 04:08:02;;;;;;;10.77;7.40;;;;;;;-141.97;59.19;47509.47;5014339;28;20170;-84
2023/08/12 04:10:27;;;;;;;8.83;6.60;;;;;;;-141.97;58.81;47638.25;5031818;28;20166;-83
2023/08/12 04:12:52;;;;;;;9.57;5.80;;;;;;;-141.97;58.15;47588.28;5030311;28;20255;-84
2023/08/12 04:15:18;;;;;;;12.40;6.27;;;;;;;-141.97;57.93;47532.53;5032178;28;20170;-84
2023/08/12 04:17:44;;;;;;;15.67;10.30;;;;;;;-141.97;57.79;47611.34;5032449;28;20166;-84
2023/08/12 04:20:09;;;;;;;11.33;6.57;;;;;;;-141.97;58.07;47413.38;5055588;28;20244;-85
2023/08/12 04:22:35;;;;;;;5.97;5.37;;;;;;;-141.97;57.72;47426.81;5046007;28;20248;-83
2023/08/12 04:25:01;;;;;;;8.27;7.03;;;;;;;-141.97;58.79;47522.91;5014053;28;20169;-83
2023/08/12 04:27:26;;;;;;;8.50;6.27;;;;;;;-141.97;58.75;47496.00;5031596;28;20220;-83
2023/08/12 04:29:52;;;;;;;10.67;7.53;;;;;;;-141.97;58.93;47676.69;5031819;28;20218;-83
2023/08/12 04:32:17;;;;;;;10.40;7.80;;;;;;;-141.97;59.60;47567.13;5032235;28;20631;-83
2023/08/12 04:34:42;;;;;;;17.80;11.73;;;;;;;-141.97;59.51;47382.63;5014283;28;20176;-83
2023/08/12 04:37:08;;;;;;;19.30;14.00;;;;;;;-141.97;59.82;47461.41;5032503;28;20174;-83
2023/08/12 04:39:33;;;;;;;23.00;15.23;;;;;;;-141.97;59.84;47386.47;5014291;28;20304;-83
2023/08/12 04:41:59;;;;;;;16.60;13.53;;;;;;;-141.97;60.17;47323.03;5033382;28;20169;-83
2023/08/12 04:44:24;;;;;;;11.80;8.00;;;;;;;-141.97;60.44;47507.53;5027733;28;20241;-79
2023/08/12 04:46:50;;;;;;;13.77;11.27;;;;;;;-141.97;60.42;47547.91;5051547;28;20201;-84
2023/08/12 04:49:15;;;;;;;10.03;7.80;;;;;;;-141.97;60.90;47628.63;5030844;28;20158;-84
2023/08/12 04:51:41;;;;;;;10.53;8.50;;;;;;;-141.97;60.50;47497.94;5031283;28;20169;-83
2023/08/12 04:54:07;;;;;;;12.57;8.50;;;;;;;-141.97;60.59;47619.03;5031549;28;20173;-83
2023/08/12 04:56:33;;;;;;;10.07;7.83;;;;;;;-141.97;59.81;47709.38;5031853;28;20170;-83
2023/08/12 04:58:58;;;;;;;9.33;7.17;;;;;;;-141.97;59.57;47476.78;5033490;28;20206;-83
2023/08/12 05:01:24;;;;;;;11.30;7.70;;;;;;;-141.97;59.48;47373.00;5047203;28;20176;-83
2023/08/12 05:03:49;;;;;;;12.03;9.20;;;;;;;-141.97;59.31;47492.16;5035475;28;20166;-83
2023/08/12 05:06:14;;;;;;;15.40;10.63;;;;;;;-141.97;59.31;47396.06;5037755;28;20170;-82
2023/08/12 05:08:40;;;;;;;23.13;16.63;;;;;;;-141.97;59.50;47661.31;5032028;28;20216;-83
2023/08/12 05:11:05;;;;;;;15.43;11.70;;;;;;;-141.97;60.40;47655.53;5013308;28;20204;-83
2023/08/12 05:13:31;;;;;;;14.07;9.10;;;;;;;-141.97;60.03;47426.81;5013014;28;20669;-82
2023/08/12 05:15:56;;;;;;;12.73;10.37;;;;;;;-141.97;59.80;47392.22;5030460;28;20158;-82
2023/08/12 05:18:26;;;;;;;14.23;12.43;;;;;;;-141.97;59.86;47344.19;5030466;28;20174;-84
2023/08/12 05:20:52;;;;;;;10.43;9.07;;;;;;;-141.97;60.14;47361.47;5012420;28;20188;-82
2023/08/12 05:23:20;;;;;;;11.73;8.43;;;;;;;-141.97;59.02;47457.56;5013109;28;20213;-82
2023/08/12 05:25:45;;;;;;;10.50;7.10;;;;;;;-141.97;59.04;47680.53;5030337;28;20221;-83
2023/08/12 05:28:10;;;;;;;10.43;7.63;;;;;;;-141.97;58.60;47517.16;5031124;28;20610;-82
2023/08/12 05:30:36;;;;;;;10.10;6.50;;;;;;;-141.97;58.54;47570.97;5030423;28;20586;-82
2023/08/12 05:33:02;;;;;;;8.47;6.57;;;;;;;-141.97;58.75;47496.00;5012552;28;20205;-82
2023/08/12 05:35:27;;;;;;;8.43;7.57;;;;;;;-141.97;58.58;47492.16;5030457;28;20654;-82
2023/08/12 05:37:53;;;;;;;9.20;6.93;;;;;;;-141.97;57.98;47494.09;5030533;28;20193;-82
2023/08/12 05:40:18;;;;;;;10.53;6.90;;;;;;;-141.97;58.23;47540.22;5030436;28;20273;-83
2023/08/12 05:42:44;;;;;;;11.23;7.40;;;;;;;-141.97;57.64;47505.63;5030573;28;20182;-82
2023/08/12 05:45:09;;;;;;;15.73;8.57;;;;;;;-141.97;57.72;47503.69;5030332;28;20170;-83
2023/08/12 05:47:34;;;;;;;10.17;7.20;;;;;;;-141.97;57.29;47388.38;5030456;28;20246;-82
2023/08/12 05:50:00;;;;;;;10.03;8.33;;;;;;;-141.97;57.92;47609.41;5029940;28;20212;-83
2023/08/12 05:52:26;;;;;;;10.60;8.30;;;;;;;-141.97;58.06;47353.78;5029991;28;20303;-83
2023/08/12 05:54:51;;;;;;;11.37;7.00;;;;;;;-141.97;57.31;47451.81;5030062;28;20169;-83
2023/08/12 05:57:17;;;;;;;21.63;7.90;;;;;;;-141.97;56.57;47365.31;5030401;28;20535;-82
2023/08/12 05:59:42;;;;;;;20.13;6.77;;;;;;;-141.97;56.67;47390.31;5030700;28;20186;-83
2023/08/12 06:02:09;;;;;;;11.00;6.30;;;;;;;-141.97;56.84;47530.59;5016559;28;20180;-84
2023/08/12 06:04:34;;;;;;;8.10;6.00;;;;;;;-141.97;56.81;47309.59;5015910;28;20499;-81
2023/08/12 06:07:00;;;;;;;7.37;5.40;;;;;;;-141.97;57.38;47415.28;5034361;28;20173;-83
2023/08/12 06:09:25;;;;;;;8.27;5.53;;;;;;;-141.97;56.86;47695.91;5033890;28;20284;-84
2023/08/12 06:11:50;;;;;;;7.70;5.57;;;;;;;-141.97;56.68;47503.69;5034450;28;20180;-82
2023/08/12 06:14:16;;;;;;;7.53;5.83;;;;;;;-141.97;56.65;47496.00;5034227;28;20297;-82
2023/08/12 06:16:41;;;;;;;7.73;5.83;;;;;;;-141.97;56.11;47532.53;4996592;28;20252;-82
2023/08/12 06:19:07;;;;;;;8.47;5.90;;;;;;;-141.97;55.98;47513.31;5014148;28;20210;-83
2023/08/12 06:21:32;;;;;;;7.70;5.57;;;;;;;-141.97;55.71;47474.88;4996965;28;20178;-83
2023/08/12 06:23:58;;;;;;;6.60;5.90;;;;;;;-141.97;55.75;47484.47;5016068;28;20187;-82
2023/08/12 06:26:23;;;;;;;8.00;5.40;;;;;;;-141.97;55.18;47511.38;4997662;28;20606;-82
2023/08/12 06:28:48;;;;;;;9.63;5.67;;;;;;;-141.97;54.49;47715.13;5015030;28;20167;-83
2023/08/12 06:31:14;;;;;;;7.27;5.53;;;;;;;-141.97;54.46;47526.75;5017726;28;20236;-83
2023/08/12 06:33:39;;;;;;;9.10;5.50;;;;;;;-141.97;53.49;47467.19;4998533;28;20572;-82
2023/08/12 06:36:05;;;;;;;6.10;5.50;;;;;;;-141.97;52.70;47478.72;5015368;28;20626;-83
2023/08/12 06:38:31;;;;;;;8.10;5.47;;;;;;;-141.97;51.84;47461.41;5013948;28;20234;-83
2023/08/12 06:40:56;;;;;;;6.10;5.10;;;;;;;-141.97;51.32;47507.53;5015616;28;20198;-85
2023/08/12 06:43:21;;;;;;;8.63;5.00;;;;;;;-141.97;51.16;47380.69;4998285;28;20182;-84
2023/08/12 06:45:47;;;;;;;6.70;5.30;;;;;;;-141.97;50.21;47519.06;5014389;28;20171;-80
2023/08/12 06:48:12;;;;;;;7.10;5.10;;;;;;;-141.97;50.12;47688.22;4996057;28;20278;-82
2023/08/12 06:50:37;;;;;;;7.83;5.17;;;;;;;-141.97;48.73;47578.66;5013891;28;20228;-81
2023/08/12 06:53:03;;;;;;;7.90;4.70;;;;;;;-141.97;48.29;47415.28;5013856;28;20221;-81
2023/08/12 06:55:29;;;;;;;7.33;5.37;;;;;;;-141.97;47.48;47219.25;4996066;28;20171;-83
2023/08/12 06:57:54;;;;;;;5.83;5.00;;;;;;;-141.97;46.22;47411.44;5013309;28;20167;-82
2023/08/12 07:00:19;;;;;;;8.30;4.70;;;;;;;-141.97;45.90;47292.28;5014392;28;20198;-83
2023/08/12 07:02:45;;;;;;;7.87;5.00;;;;;;;-141.97;46.96;47474.88;5020714;28;20246;-83
2023/08/12 07:05:10;;;;;;;6.87;4.97;;;;;;;-141.97;45.39;47570.97;5019605;28;20166;-84
2023/08/12 07:07:36;;;;;;;8.37;4.70;;;;;;;-141.97;45.14;47526.75;5022850;28;20219;-82
2023/08/12 07:10:01;;;;;;;5.23;4.47;;;;;;;-141.97;44.65;47463.34;5032819;28;20179;-83
2023/08/12 07:12:27;;;;;;;6.33;4.43;;;;;;;-141.97;44.40;47471.03;5013294;28;20171;-83
2023/08/12 07:14:52;;;;;;;6.53;4.63;;;;;;;-141.97;43.61;47436.44;5014161;28;20638;-83
2023/08/12 07:17:18;;;;;;;6.87;4.60;;;;;;;-141.97;43.71;47490.25;5014121;28;20276;-82
2023/08/12 07:19:43;;;;;;;9.10;4.20;;;;;;;-141.97;43.48;47449.88;5016933;28;20651;-82
2023/08/12 07:22:08;;;;;;;5.57;4.60;;;;;;;-141.97;43.35;47447.97;5019741;28;20158;-82
2023/08/12 07:24:34;;;;;;;5.20;4.30;;;;;;;-141.97;43.48;47428.75;5000469;28;20653;-82
2023/08/12 07:26:59;;;;;;;6.30;4.63;;;;;;;-141.97;43.87;47463.34;5014442;28;20265;-84
2023/08/12 07:29:25;;;;;;;5.60;4.37;;;;;;;-141.97;43.44;47471.03;5013336;28;20254;-82
2023/08/12 07:31:52;;;;;;;6.63;4.57;;;;;;;-141.97;43.07;47449.88;5013986;28;20619;-84
2023/08/12 07:34:17;;;;;;;4.77;4.23;;;;;;;-141.97;43.27;47426.81;5013754;28;20174;-84
2023/08/12 07:36:42;;;;;;;7.87;4.57;;;;;;;-141.97;42.95;47376.84;5014069;28;20171;-86
2023/08/12 07:39:08;;;;;;;6.40;4.13;;;;;;;-141.97;42.92;47432.59;5000615;28;20216;-86
2023/08/12 07:41:33;;;;;;;8.67;4.53;;;;;;;-141.97;42.58;47446.03;5036517;28;20150;-85
2023/08/12 07:43:59;;;;;;;6.60;4.90;;;;;;;-141.97;42.43;47607.50;5039072;28;20181;-86
2023/08/12 07:46:24;;;;;;;7.93;4.60;;;;;;;-141.97;41.17;47620.94;5037090;28;20166;-85
2023/08/12 07:48:50;;;;;;;5.13;4.53;;;;;;;-141.97;40.67;47501.78;5042914;28;20177;-82
2023/08/12 07:51:15;;;;;;;7.33;4.33;;;;;;;-141.97;40.43;47659.38;5042605;28;20166;-82
2023/08/12 07:53:41;;;;;;;6.27;4.70;;;;;;;-141.97;39.33;47188.50;5039488;28;20281;-80
2023/08/12 07:56:06;;;;;;;7.25;4.55;;;;;;;-141.97;39.43;47457.56;5033410;28;20163;-83
2023/08/12 07:58:31;;;;;;;4.80;4.30;;;;;;;-141.97;40.46;47449.88;5035040;28;20190;-86
2023/08/12 08:00:57;;;;;;;7.30;4.38;;;;;;;-141.97;39.89;47426.81;5020572;28;20170;-85
2023/08/12 08:03:23;;;;;;;5.45;4.10;;;;;;;-141.97;39.44;47649.78;5043046;28;20164;-86
2023/08/12 08:05:48;;;;;;;5.03;4.15;;;;;;;-141.97;39.67;47230.78;5023495;28;20170;-85
2023/08/12 08:08:14;;;;;;;8.73;4.40;;;;;;;-141.97;39.39;47440.28;5035869;28;20266;-85
2023/08/12 08:10:40;;;;;;;5.70;4.40;;;;;;;-141.97;37.69;47198.09;5032070;28;20165;-86
2023/08/12 08:13:05;;;;;;;5.85;4.20;;;;;;;-141.97;37.39;47644.00;5032561;28;20196;-84
2023/08/12 08:15:30;;;;;;;5.90;3.90;;;;;;;-141.97;37.03;47319.19;5014336;28;20175;-85
2023/08/12 08:17:56;;;;;;;4.63;4.10;;;;;;;-141.97;37.16;47319.19;5014721;28;20170;-86
2023/08/12 08:20:22;;;;;;;4.97;4.20;;;;;;;-141.97;36.66;47365.31;5031966;28;20210;-85
2023/08/12 08:22:47;;;;;;;5.05;4.07;;;;;;;-141.97;36.40;47307.66;5032312;28;20195;-86
2023/08/12 08:25:13;;;;;;;5.43;4.05;;;;;;;-141.97;35.91;47511.38;5031191;28;20165;-85
2023/08/12 08:27:38;;;;;;;5.97;4.00;;;;;;;-141.97;35.87;47357.63;5031692;28;20254;-84
2023/08/12 08:30:06;;;;;;;5.15;4.47;;;;;;;-141.97;35.96;47361.47;5031712;28;20161;-85
2023/08/12 08:32:31;;;;;;;5.93;4.43;;;;;;;-141.97;35.89;47346.09;5032502;28;20636;-86
2023/08/12 08:34:56;;;;;;;5.07;4.30;;;;;;;-141.97;35.69;47378.78;5035131;28;20188;-85
2023/08/12 08:37:22;;;;;;;5.20;4.20;;;;;;;-141.97;36.90;47509.47;5050313;28;20173;-85
2023/08/12 08:39:47;;;;;;;4.78;3.97;;;;;;;-141.97;35.98;47217.34;5049873;28;20212;-86
2023/08/12 08:42:15;;;;;;;5.82;3.92;;;;;;;-141.97;35.42;47223.09;5034226;28;20176;-86
2023/08/12 08:44:42;;;;;;;9.88;4.40;;;;;;;-141.97;35.89;47105.88;5031782;28;20169;-85
2023/08/12 08:47:08;;;;;;;5.82;4.43;;;;;;;-141.97;35.83;47376.84;5031708;28;20195;-85
2023/08/12 08:49:36;;;;;;;4.55;3.95;;;;;;;-141.97;34.88;47380.69;5031151;28;20162;-85
2023/08/12 08:52:01;;;;;;;9.00;4.53;;;;;;;-141.97;34.80;47290.38;5013928;28;20177;-85
2023/08/12 08:54:28;;;;;;;4.90;4.00;;;;;;;-141.97;34.44;47082.81;5014271;28;20188;-85
2023/08/12 08:56:54;;;;;;;4.25;3.80;;;;;;;-141.97;34.04;47294.22;5041769;28;20176;-84
2023/08/12 08:59:21;;;;;;;6.35;4.00;;;;;;;-141.97;34.33;47211.56;5051716;28;20178;-85
2023/08/12 09:01:51;;;;;;;4.72;3.72;;;;;;;-141.97;33.14;47148.16;5052309;28;20162;-86
2023/08/12 09:04:18;;;;;;;4.00;3.60;;;;;;;-141.97;32.71;47355.72;5034879;28;20271;-84
2023/08/12 09:06:45;;;;;;;4.30;3.72;;;;;;;-141.97;32.69;47092.41;5017678;28;20611;-84
2023/08/12 09:09:14;;;;;;;4.85;3.80;;;;;;;-141.97;31.95;47240.41;5032224;28;20158;-84
2023/08/12 09:11:40;;;;;;;5.35;3.30;;;;;;;-141.97;32.25;47188.50;5013788;28;20184;-86
2023/08/12 09:14:06;;;;;;;4.70;3.70;;;;;;;-141.97;32.19;47073.19;5031501;28;20160;-85
2023/08/12 09:16:31;;;;;;;5.30;3.60;;;;;;;-141.97;32.19;47324.97;5031310;28;20169;-87
2023/08/12 09:18:59;;;;;;;8.38;3.80;;;;;;;-141.97;31.21;47330.72;5013167;28;20199;-85
2023/08/12 09:21:24;;;;;;;4.88;3.78;;;;;;;-141.97;31.53;47125.09;5031640;28;20172;-85
2023/08/12 09:23:50;;;;;;;5.07;3.58;;;;;;;-141.97;31.74;47323.03;5039481;28;20161;-84
2023/08/12 09:26:20;;;;;;;4.63;3.83;;;;;;;-141.97;32.12;47334.56;5041113;28;20292;-84
2023/08/12 09:28:47;;;;;;;4.47;3.88;;;;;;;-141.97;31.82;47338.41;5045484;28;20163;-86
2023/08/12 09:31:27;;;;;;;4.80;3.63;;;;;;;-141.97;31.64;47257.69;5052956;28;20165;-85
2023/08/12 09:33:54;;;;;;;3.92;3.47;;;;;;;-141.97;31.44;47340.34;5036908;28;20533;-84
2023/08/12 09:36:22;;;;;;;6.45;3.67;;;;;;;-141.97;31.44;47344.19;5031125;28;20161;-85
2023/08/12 09:38:47;;;;;;;4.50;3.70;;;;;;;-141.97;31.55;47265.38;5030409;28;20272;-85
2023/08/12 09:41:13;;;;;;;4.07;3.70;;;;;;;-141.97;32.52;47292.28;5030870;28;20188;-84
2023/08/12 09:43:44;;;;;;;4.18;3.78;;;;;;;-141.97;31.66;47430.66;5030913;28;20200;-85
2023/08/12 09:46:16;;;;;;;4.57;3.20;;;;;;;-141.97;31.61;47590.19;5031233;28;20236;-86
2023/08/12 09:48:42;;;;;;;4.68;3.95;;;;;;;-141.97;31.53;47330.72;5031020;28;20185;-86
2023/08/12 09:51:08;;;;;;;4.22;3.80;;;;;;;-141.97;31.04;47321.13;5036352;28;20218;-84
2023/08/12 09:53:35;;;;;;;4.78;3.70;;;;;;;-141.97;31.33;47284.59;5031179;28;20695;-85
2023/08/12 09:56:07;;;;;;;4.50;3.47;;;;;;;-141.97;30.95;47286.53;5030648;28;20174;-85
2023/08/12 09:58:36;;;;;;;5.68;3.60;;;;;;;-141.97;30.88;47421.06;5031211;28;20186;-86
2023/08/12 10:01:03;;;;;;;3.72;3.28;;;;;;;-141.97;30.43;47223.09;5032854;28;20589;-86
2023/08/12 10:03:30;;;;;;;4.07;3.40;;;;;;;-141.97;30.20;47115.47;5031792;28;20262;-85
2023/08/12 10:05:56;;;;;;;3.78;3.28;;;;;;;-141.97;30.00;47115.47;5031775;28;20173;-86
2023/08/12 10:08:22;;;;;;;5.97;3.50;;;;;;;-141.97;30.50;47073.19;5031926;28;20166;-86
2023/08/12 10:10:48;;;;;;;3.83;3.42;;;;;;;-141.97;30.44;47323.03;5013944;28;20216;-85
2023/08/12 10:13:14;;;;;;;4.18;3.30;;;;;;;-141.97;31.10;47119.31;5031449;28;20193;-85
2023/08/12 10:15:41;;;;;;;3.80;3.40;;;;;;;-141.97;31.04;47317.28;5031516;28;20165;-86
2023/08/12 10:18:07;;;;;;;4.32;3.28;;;;;;;-141.97;30.86;47259.63;5032528;28;20236;-84
2023/08/12 10:20:35;;;;;;;4.13;3.20;;;;;;;-141.97;30.63;47313.44;5031642;28;20242;-86
2023/08/12 10:23:01;;;;;;;3.63;3.33;;;;;;;-141.97;30.43;47250.00;5031780;28;20219;-84
2023/08/12 10:25:31;;;;;;;5.22;3.33;;;;;;;-141.97;29.97;47171.22;5012842;28;20562;-85
2023/08/12 10:27:56;;;;;;;3.50;3.20;;;;;;;-141.97;30.17;47432.59;5013744;28;20586;-85
2023/08/12 10:30:22;;;;;;;4.70;3.30;;;;;;;-141.97;29.84;47084.72;5030565;28;20164;-85
2023/08/12 10:32:47;;;;;;;3.42;3.13;;;;;;;-141.97;30.09;47184.66;5031045;28;20173;-87
2023/08/12 10:35:13;;;;;;;4.72;3.30;;;;;;;-141.97;30.05;47292.28;5031377;28;20169;-84
2023/08/12 10:37:39;;;;;;;3.88;3.20;;;;;;;-141.97;29.80;47517.16;5033433;28;20244;-85
2023/08/12 10:40:08;;;;;;;4.18;3.20;;;;;;;-141.97;29.76;47248.09;5013726;28;20657;-85
2023/08/12 10:42:47;;;;;;;5.38;3.40;;;;;;;-141.97;30.39;47203.88;5033479;28;20511;-85
2023/08/12 10:45:15;;;;;;;3.35;3.05;;;;;;;-141.97;30.34;47125.09;5038041;28;20694;-86
2023/08/12 10:47:49;;;;;;;3.80;3.33;;;;;;;-141.97;30.03;47201.97;5031013;28;20165;-85
2023/08/12 10:50:19;;;;;;;4.65;3.20;;;;;;;-141.97;30.33;47015.53;5013913;28;20276;-85
2023/08/12 10:52:45;;;;;;;3.42;3.10;;;;;;;-141.97;29.94;47338.41;5014212;28;20651;-86
2023/08/12 10:55:27;;;;;;;5.70;3.20;;;;;;;-141.97;30.22;47169.28;4995942;28;20194;-85
2023/08/12 10:57:54;;;;;;;4.82;3.33;;;;;;;-141.97;29.90;47259.63;5020884;28;20527;-86
2023/08/12 11:00:23;;;;;;;4.45;3.20;;;;;;;-141.97;29.94;47157.75;5013832;28;20190;-85
2023/08/12 11:02:53;;;;;;;3.47;3.17;;;;;;;-141.97;29.81;47232.72;4997578;28;20260;-84
2023/08/12 11:05:20;;;;;;;5.25;3.45;;;;;;;-141.97;29.83;47319.19;5014923;28;20200;-84
2023/08/12 11:07:48;;;;;;;3.90;3.28;;;;;;;-141.97;30.04;47317.28;5016142;28;20165;-85
2023/08/12 11:10:21;;;;;;;3.50;3.20;;;;;;;-141.97;30.08;47311.50;5015855;28;20159;-85